Time;durP1;ratioP1;P1;durP2;ratioP2;P2;SDS_P1;SDS_P2;PMS_P1;PMS_P2;Temp;Humidity;BMP_temperature;BMP_pressure;BME280_temperature;BME280_humidity;BME280_pressure;Samples;Min_cycle;Max_cycle;Signal;HPM_P1;HPM_P2
2021/11/30 00:01:16;;;;;;;299.13;288.20;;;3.70;99.90;;;;;;4882586;29;20466;-84
2021/11/30 00:03:43;;;;;;;273.10;262.80;;;3.80;99.90;;;;;;4882113;29;20483;-84
2021/11/30 00:06:11;;;;;;;253.53;244.00;;;3.80;99.90;;;;;;4881772;29;20456;-83
2021/11/30 00:08:38;;;;;;;248.43;238.80;;;3.80;99.90;;;;;;4881368;29;20483;-84
2021/11/30 00:11:05;;;;;;;226.93;218.23;;;3.80;99.90;;;;;;4881158;29;20474;-84
2021/11/30 00:13:33;;;;;;;225.37;216.30;;;3.70;99.90;;;;;;4881055;29;20507;-83
2021/11/30 00:16:01;;;;;;;201.33;193.23;;;3.70;99.90;;;;;;4881246;29;20468;-83
2021/11/30 00:18:32;;;;;;;180.87;173.27;;;3.70;99.90;;;;;;4881321;29;20487;-84
2021/11/30 00:21:00;;;;;;;193.77;186.17;;;3.70;99.90;;;;;;4881504;29;20526;-83
2021/11/30 00:23:27;;;;;;;167.80;160.80;;;3.70;99.90;;;;;;4881594;29;20893;-84
2021/11/30 00:25:53;;;;;;;165.27;158.63;;;3.70;99.90;;;;;;4880866;29;20459;-85
2021/11/30 00:28:20;;;;;;;173.80;166.80;;;3.70;99.90;;;;;;4881012;29;20482;-84
2021/11/30 00:30:47;;;;;;;176.03;168.63;;;3.70;99.90;;;;;;4881010;29;20840;-84
2021/11/30 00:33:15;;;;;;;178.80;171.03;;;3.70;99.90;;;;;;4881787;29;20471;-84
2021/11/30 00:35:42;;;;;;;166.03;159.33;;;3.70;99.90;;;;;;4880324;29;20464;-84
2021/11/30 00:38:12;;;;;;;179.63;172.40;;;3.80;99.90;;;;;;4880610;29;21006;-83
2021/11/30 00:40:40;;;;;;;186.37;179.07;;;3.60;99.90;;;;;;4881092;29;20566;-83
2021/11/30 00:43:07;;;;;;;122.33;116.50;;;3.70;99.90;;;;;;4881729;29;20538;-83
2021/11/30 00:45:39;;;;;;;115.97;110.23;;;3.70;99.90;;;;;;4882007;29;20459;-83
2021/11/30 00:48:08;;;;;;;89.63;85.53;;;3.70;99.90;;;;;;4884851;29;20565;-84
2021/11/30 00:50:42;;;;;;;63.70;59.60;;;3.90;99.30;;;;;;4885096;29;20507;-84
2021/11/30 00:53:09;;;;;;;71.37;67.13;;;3.80;98.90;;;;;;4883821;29;20456;-83
2021/11/30 00:55:35;;;;;;;58.07;54.07;;;3.80;98.90;;;;;;4884447;29;20455;-83
2021/11/30 00:58:02;;;;;;;60.40;56.60;;;3.80;98.50;;;;;;4884372;29;20486;-84
2021/11/30 01:00:30;;;;;;;43.40;40.00;;;3.80;98.60;;;;;;4884489;29;20506;-84
2021/11/30 01:02:57;;;;;;;47.70;44.40;;;3.90;97.10;;;;;;4884325;29;21006;-85
2021/11/30 01:05:24;;;;;;;37.90;33.80;;;3.80;97.10;;;;;;4883942;29;20460;-84
2021/11/30 01:07:52;;;;;;;32.23;20.90;;;3.80;96.60;;;;;;4884222;29;20483;-83
2021/11/30 01:10:19;;;;;;;22.80;16.70;;;3.80;95.70;;;;;;4884784;29;20459;-84
2021/11/30 01:12:46;;;;;;;22.73;17.50;;;3.80;96.00;;;;;;4884581;29;20466;-85
2021/11/30 01:15:17;;;;;;;23.03;14.70;;;3.80;95.70;;;;;;4883942;29;20463;-84
2021/11/30 01:17:44;;;;;;;20.13;12.23;;;3.90;94.50;;;;;;4884178;29;21008;-85
2021/11/30 01:20:12;;;;;;;18.73;11.23;;;3.80;94.10;;;;;;4884146;29;20471;-84
2021/11/30 01:22:40;;;;;;;19.97;11.10;;;3.80;93.80;;;;;;4884258;29;20847;-83
2021/11/30 01:25:10;;;;;;;19.23;10.93;;;3.80;93.00;;;;;;4884130;29;20968;-84
2021/11/30 01:27:37;;;;;;;21.17;10.23;;;3.80;92.40;;;;;;4884158;29;20483;-84
2021/11/30 01:30:05;;;;;;;25.63;11.83;;;3.80;92.40;;;;;;4883437;29;20467;-83
2021/11/30 01:32:32;;;;;;;17.00;8.63;;;3.90;92.00;;;;;;4883646;29;20853;-84
2021/11/30 01:34:59;;;;;;;14.83;9.17;;;3.80;92.00;;;;;;4883415;29;20463;-84
2021/11/30 01:37:26;;;;;;;22.37;9.97;;;3.80;91.60;;;;;;4884048;29;20480;-84
2021/11/30 01:39:53;;;;;;;16.20;9.87;;;3.80;91.70;;;;;;4883471;29;20463;-84
2021/11/30 01:42:21;;;;;;;14.73;9.53;;;3.90;91.50;;;;;;4883039;29;20464;-84
2021/11/30 01:44:50;;;;;;;23.37;10.67;;;3.80;91.20;;;;;;4883453;29;20577;-84
2021/11/30 01:47:35;;;;;;;12.20;7.47;;;3.90;91.70;;;;;;4883435;29;20657;-84
2021/11/30 01:50:06;;;;;;;17.00;8.60;;;4.00;90.70;;;;;;4883268;29;20495;-84
2021/11/30 01:52:33;;;;;;;13.37;7.70;;;3.90;91.10;;;;;;4882503;29;20460;-83
2021/11/30 01:55:00;;;;;;;13.17;8.10;;;4.00;91.00;;;;;;4882656;29;20975;-85
2021/11/30 01:57:28;;;;;;;16.20;7.20;;;3.90;90.90;;;;;;4881656;29;20494;-84
2021/11/30 01:59:56;;;;;;;12.67;7.23;;;3.90;90.20;;;;;;4882928;29;20475;-84
2021/11/30 02:02:23;;;;;;;20.20;7.57;;;4.00;90.50;;;;;;4883810;29;20507;-83
2021/11/30 02:04:50;;;;;;;14.03;7.47;;;4.00;90.30;;;;;;4883660;29;21048;-84
2021/11/30 02:07:17;;;;;;;16.23;7.50;;;4.10;90.10;;;;;;4883636;29;20482;-84
2021/11/30 02:09:45;;;;;;;11.77;6.50;;;4.10;89.50;;;;;;4883297;29;20475;-84
2021/11/30 02:12:13;;;;;;;11.67;6.80;;;4.10;89.70;;;;;;4882387;29;20558;-83
2021/11/30 02:14:45;;;;;;;15.13;6.37;;;4.10;89.80;;;;;;4882680;29;20484;-84
2021/11/30 02:17:13;;;;;;;20.30;7.57;;;4.20;90.50;;;;;;4882565;29;20855;-84
2021/11/30 02:19:45;;;;;;;15.13;6.80;;;4.10;90.30;;;;;;4883328;29;20844;-84
2021/11/30 02:22:14;;;;;;;11.07;7.73;;;4.10;91.00;;;;;;4882825;29;20469;-83
2021/11/30 02:24:41;;;;;;;8.90;6.40;;;4.10;91.20;;;;;;4882008;29;21012;-83
2021/11/30 02:27:08;;;;;;;11.13;7.20;;;4.00;90.70;;;;;;4882145;29;20544;-84
2021/11/30 02:29:35;;;;;;;13.30;7.20;;;4.10;91.10;;;;;;4882807;29;20459;-83
2021/11/30 02:32:02;;;;;;;12.70;7.00;;;4.10;90.80;;;;;;4882380;29;20463;-82
2021/11/30 02:34:29;;;;;;;10.20;6.77;;;4.10;91.40;;;;;;4881889;29;20983;-83
2021/11/30 02:37:04;;;;;;;8.90;7.20;;;4.10;91.20;;;;;;4881950;29;20490;-83
2021/11/30 02:39:31;;;;;;;10.27;7.80;;;4.20;92.20;;;;;;4882265;29;20462;-83
2021/11/30 02:41:58;;;;;;;13.80;12.60;;;4.10;92.80;;;;;;4883463;29;20459;-84
2021/11/30 02:44:26;;;;;;;44.50;42.27;;;4.00;99.10;;;;;;4882654;29;20487;-84
2021/11/30 02:46:55;;;;;;;98.63;94.63;;;3.80;98.20;;;;;;4881644;29;20482;-84
2021/11/30 02:49:24;;;;;;;194.57;187.87;;;3.70;99.60;;;;;;4881567;29;20972;-84
2021/11/30 02:51:55;;;;;;;313.33;302.57;;;3.70;99.90;;;;;;4880930;29;20953;-84
2021/11/30 02:54:24;;;;;;;377.67;364.57;;;3.60;99.90;;;;;;4881528;29;20470;-84
2021/11/30 02:56:53;;;;;;;473.07;455.30;;;3.50;99.90;;;;;;4881783;29;20841;-83
2021/11/30 02:59:21;;;;;;;557.97;534.23;;;3.50;99.90;;;;;;4882635;29;20466;-84
2021/11/30 03:01:53;;;;;;;649.83;616.87;;;3.50;99.90;;;;;;4880403;29;20475;-84
2021/11/30 03:04:20;;;;;;;640.03;606.87;;;3.50;99.90;;;;;;4881331;29;20487;-83
2021/11/30 03:06:46;;;;;;;694.80;657.40;;;3.50;99.90;;;;;;4880545;29;20486;-83
2021/11/30 03:09:14;;;;;;;705.97;669.13;;;3.50;99.90;;;;;;4880058;29;20460;-83
2021/11/30 03:11:42;;;;;;;750.13;705.77;;;3.40;99.90;;;;;;4879556;29;20470;-84
2021/11/30 03:14:09;;;;;;;759.07;713.57;;;3.40;99.90;;;;;;4880137;29;20456;-83
2021/11/30 03:16:36;;;;;;;753.53;708.93;;;3.40;99.90;;;;;;4880245;29;20463;-84
2021/11/30 03:19:04;;;;;;;773.73;725.40;;;3.40;99.90;;;;;;4880012;29;20971;-83
2021/11/30 03:21:31;;;;;;;767.40;717.70;;;3.30;99.90;;;;;;4880163;29;20459;-84
2021/11/30 03:23:57;;;;;;;770.07;721.80;;;3.40;99.90;;;;;;4880347;29;20479;-83
2021/11/30 03:26:24;;;;;;;759.73;710.00;;;3.40;99.90;;;;;;4879947;29;20463;-83
2021/11/30 03:28:52;;;;;;;751.10;702.53;;;3.40;99.90;;;;;;4879872;29;20480;-84
2021/11/30 03:31:32;;;;;;;754.83;703.33;;;3.40;99.90;;;;;;4880120;29;20463;-85
2021/11/30 03:33:59;;;;;;;744.10;693.00;;;3.40;99.90;;;;;;4879739;29;20826;-83
2021/11/30 03:36:26;;;;;;;756.90;703.70;;;3.40;99.90;;;;;;4879639;29;20515;-83
2021/11/30 03:38:53;;;;;;;773.43;718.23;;;3.40;99.90;;;;;;4879326;29;20463;-82
2021/11/30 03:41:19;;;;;;;766.70;707.60;;;3.40;99.90;;;;;;4879707;29;20463;-82
2021/11/30 03:43:46;;;;;;;778.30;724.00;;;3.40;99.90;;;;;;4880560;29;20494;-83
2021/11/30 03:46:14;;;;;;;777.27;717.47;;;3.40;99.90;;;;;;4879568;29;20463;-82
2021/11/30 03:48:41;;;;;;;785.47;724.43;;;3.40;99.90;;;;;;4881197;29;20992;-83
2021/11/30 03:51:08;;;;;;;792.60;728.93;;;3.50;99.90;;;;;;4879867;29;20466;-82
2021/11/30 03:53:34;;;;;;;791.13;727.00;;;3.50;99.90;;;;;;4880796;29;20456;-82
2021/11/30 03:56:01;;;;;;;785.03;719.17;;;3.50;99.90;;;;;;4880078;29;20464;-83
2021/11/30 03:58:28;;;;;;;788.73;724.80;;;3.60;99.90;;;;;;4879790;29;20495;-82
2021/11/30 04:00:55;;;;;;;784.00;718.90;;;3.50;99.90;;;;;;4880218;29;20461;-83
2021/11/30 04:03:27;;;;;;;783.30;715.80;;;3.50;99.90;;;;;;4879729;29;20464;-83
2021/11/30 04:05:53;;;;;;;785.27;718.00;;;3.50;99.90;;;;;;4879341;29;20464;-83
2021/11/30 04:08:20;;;;;;;787.57;720.60;;;3.60;99.90;;;;;;4880027;29;20490;-83
2021/11/30 04:10:47;;;;;;;791.60;723.73;;;3.50;99.90;;;;;;4879772;29;20470;-82
2021/11/30 04:13:14;;;;;;;785.13;718.13;;;3.60;99.90;;;;;;4880232;29;20467;-81
2021/11/30 04:15:40;;;;;;;798.90;729.30;;;3.60;99.90;;;;;;4879395;29;20466;-82
2021/11/30 04:18:07;;;;;;;813.77;742.40;;;3.60;99.90;;;;;;4879355;29;20895;-84
2021/11/30 04:20:35;;;;;;;823.60;750.87;;;3.60;99.90;;;;;;4880566;29;20463;-82
2021/11/30 04:23:03;;;;;;;829.63;754.83;;;3.60;99.90;;;;;;4883235;29;20466;-83
2021/11/30 04:25:30;;;;;;;831.53;755.40;;;3.60;99.90;;;;;;4882905;29;20482;-83
2021/11/30 04:27:56;;;;;;;837.20;761.30;;;3.70;99.90;;;;;;4883193;29;20522;-83
2021/11/30 04:30:23;;;;;;;833.40;757.00;;;3.80;99.90;;;;;;4883096;29;20467;-83
2021/11/30 04:32:52;;;;;;;839.20;761.53;;;3.80;99.90;;;;;;4883256;29;20474;-84
2021/11/30 04:35:19;;;;;;;839.17;760.93;;;3.80;99.90;;;;;;4883280;29;20451;-83
2021/11/30 04:37:47;;;;;;;831.77;755.50;;;3.90;99.90;;;;;;4883317;29;20482;-83
2021/11/30 04:40:15;;;;;;;835.93;759.23;;;3.90;99.90;;;;;;4883937;29;20467;-83
2021/11/30 04:42:44;;;;;;;826.33;749.37;;;3.90;99.90;;;;;;4883320;29;20459;-83
2021/11/30 04:45:16;;;;;;;834.70;756.00;;;4.00;99.90;;;;;;4882770;29;20564;-82
2021/11/30 04:47:43;;;;;;;831.07;753.17;;;4.00;99.90;;;;;;4883966;29;21169;-82
2021/11/30 04:50:15;;;;;;;823.87;746.97;;;4.10;99.90;;;;;;4884306;29;20507;-83
2021/11/30 04:52:45;;;;;;;824.37;749.50;;;4.10;99.90;;;;;;4885027;29;20463;-83
2021/11/30 04:55:13;;;;;;;810.80;736.80;;;4.30;99.90;;;;;;4884197;29;20553;-83
2021/11/30 04:57:40;;;;;;;796.13;726.67;;;4.40;99.90;;;;;;4884107;29;20479;-82
2021/11/30 05:00:08;;;;;;;802.13;730.23;;;4.40;99.90;;;;;;4883622;29;20478;-83
2021/11/30 05:02:35;;;;;;;796.60;725.20;;;4.50;99.90;;;;;;4883454;29;20460;-83
2021/11/30 05:05:02;;;;;;;798.63;729.33;;;4.50;99.90;;;;;;4883322;29;20483;-84
2021/11/30 05:07:29;;;;;;;818.77;745.60;;;4.50;99.90;;;;;;4883229;29;20482;-82
2021/11/30 05:09:55;;;;;;;820.07;746.70;;;4.50;99.90;;;;;;4883093;29;20468;-83
2021/11/30 05:12:23;;;;;;;822.30;747.50;;;4.50;99.90;;;;;;4883869;29;20836;-85
2021/11/30 05:14:50;;;;;;;810.83;738.83;;;4.50;99.90;;;;;;4887040;29;20452;-83
2021/11/30 05:17:17;;;;;;;836.90;760.23;;;4.60;99.90;;;;;;4885177;29;20479;-83
2021/11/30 05:19:43;;;;;;;826.90;751.40;;;4.60;99.90;;;;;;4886370;29;20464;-83
2021/11/30 05:22:11;;;;;;;808.13;735.87;;;4.70;99.90;;;;;;4886499;29;20467;-83
2021/11/30 05:24:38;;;;;;;806.60;734.23;;;4.70;99.90;;;;;;4886987;29;20475;-83
2021/11/30 05:27:05;;;;;;;807.93;736.37;;;4.70;99.90;;;;;;4886561;29;20486;-83
2021/11/30 05:29:33;;;;;;;810.33;735.70;;;4.80;99.90;;;;;;4887559;29;20466;-83
2021/11/30 05:32:00;;;;;;;811.33;737.37;;;4.70;99.90;;;;;;4886634;29;20466;-83
2021/11/30 05:34:26;;;;;;;811.07;737.17;;;4.70;99.90;;;;;;4888772;29;20462;-83
2021/11/30 05:36:53;;;;;;;819.37;745.37;;;4.80;99.90;;;;;;4888480;29;20480;-83
2021/11/30 05:39:20;;;;;;;813.60;741.40;;;4.80;99.90;;;;;;4888341;29;20467;-84
2021/11/30 05:41:46;;;;;;;814.53;742.00;;;4.90;99.90;;;;;;4887233;29;20534;-83
2021/11/30 05:44:13;;;;;;;815.47;742.70;;;4.90;99.90;;;;;;4888380;29;20491;-83
2021/11/30 05:46:41;;;;;;;816.93;741.13;;;5.00;99.90;;;;;;4887197;29;20471;-84
2021/11/30 05:49:08;;;;;;;813.87;739.60;;;5.00;99.90;;;;;;4887677;29;21142;-82
2021/11/30 05:51:35;;;;;;;815.87;739.53;;;5.10;99.90;;;;;;4886332;29;20463;-83
2021/11/30 05:54:02;;;;;;;814.30;738.43;;;5.00;99.90;;;;;;4886921;29;20467;-83
2021/11/30 05:56:29;;;;;;;811.50;736.87;;;5.10;99.90;;;;;;4887668;29;20459;-83
2021/11/30 05:58:57;;;;;;;784.17;712.17;;;5.10;99.90;;;;;;4887850;29;20498;-83
2021/11/30 06:01:26;;;;;;;804.77;731.67;;;5.20;99.90;;;;;;4886464;29;20515;-83
2021/11/30 06:03:59;;;;;;;812.67;738.10;;;5.20;99.90;;;;;;4887085;29;20499;-84
2021/11/30 06:06:28;;;;;;;815.07;740.77;;;5.20;99.90;;;;;;4886606;29;20844;-82
2021/11/30 06:08:55;;;;;;;798.67;727.10;;;5.20;99.90;;;;;;4883376;29;20861;-82
2021/11/30 06:11:21;;;;;;;797.43;726.87;;;5.30;99.90;;;;;;4883018;29;20470;-84
2021/11/30 06:13:48;;;;;;;802.23;731.20;;;5.20;99.90;;;;;;4883432;29;20855;-83
2021/11/30 06:16:15;;;;;;;800.03;727.70;;;5.30;99.90;;;;;;4883495;29;20885;-83
2021/11/30 06:18:42;;;;;;;775.67;705.20;;;5.30;99.90;;;;;;4884083;29;20487;-84
2021/11/30 06:21:11;;;;;;;795.50;723.33;;;5.40;99.90;;;;;;4884322;29;20487;-83
2021/11/30 06:23:38;;;;;;;799.53;727.07;;;5.40;99.90;;;;;;4884278;29;20470;-83
2021/11/30 06:26:05;;;;;;;803.03;728.93;;;5.40;99.90;;;;;;4883395;29;20516;-83
2021/11/30 06:28:32;;;;;;;802.23;727.23;;;5.40;99.90;;;;;;4882812;29;20483;-84
2021/11/30 06:30:59;;;;;;;813.43;737.97;;;5.50;99.90;;;;;;4883085;29;20857;-83
2021/11/30 06:33:26;;;;;;;816.57;740.33;;;5.40;99.90;;;;;;4882964;29;20459;-82
2021/11/30 06:35:53;;;;;;;810.47;738.30;;;5.50;99.90;;;;;;4883344;29;20463;-85
2021/11/30 06:38:21;;;;;;;827.17;749.30;;;5.60;99.90;;;;;;4883504;29;20479;-82
2021/11/30 06:40:48;;;;;;;797.83;724.37;;;5.60;99.90;;;;;;4883368;29;20467;-83
2021/11/30 06:43:15;;;;;;;834.33;754.77;;;5.60;99.90;;;;;;4882645;29;20472;-83
2021/11/30 06:45:43;;;;;;;831.93;754.13;;;5.60;99.90;;;;;;4881992;29;20518;-84
2021/11/30 06:48:10;;;;;;;834.63;755.43;;;5.60;99.90;;;;;;4883139;29;20491;-83
2021/11/30 06:50:37;;;;;;;838.20;760.57;;;5.70;99.90;;;;;;4882615;29;20474;-82
2021/11/30 06:53:04;;;;;;;837.70;760.20;;;5.60;99.90;;;;;;4883651;29;20463;-83
2021/11/30 06:55:35;;;;;;;843.97;763.20;;;5.70;99.90;;;;;;4881220;29;20459;-83
2021/11/30 06:58:02;;;;;;;838.30;758.57;;;5.70;99.90;;;;;;4882301;29;20495;-86
2021/11/30 07:00:28;;;;;;;848.03;764.97;;;5.80;99.90;;;;;;4882292;29;20554;-82
2021/11/30 07:02:56;;;;;;;842.00;760.93;;;5.70;99.90;;;;;;4883098;29;20964;-81
2021/11/30 07:05:26;;;;;;;846.60;763.90;;;5.80;99.90;;;;;;4883941;29;20570;-83
2021/11/30 07:08:01;;;;;;;848.77;766.10;;;5.80;99.90;;;;;;4884631;29;20487;-82
2021/11/30 07:10:39;;;;;;;845.27;767.40;;;5.80;99.90;;;;;;4884094;29;20463;-82
2021/11/30 07:13:18;;;;;;;864.90;781.30;;;5.90;99.90;;;;;;4884331;29;20492;-82
2021/11/30 07:15:47;;;;;;;866.40;782.90;;;5.80;99.90;;;;;;4883993;29;20531;-81
2021/11/30 07:18:15;;;;;;;866.17;782.83;;;5.90;99.90;;;;;;4882627;29;20857;-82
2021/11/30 07:20:43;;;;;;;868.20;783.70;;;5.90;99.90;;;;;;4883326;29;20811;-82
2021/11/30 07:23:10;;;;;;;863.90;777.00;;;5.80;99.90;;;;;;4883154;29;20964;-82
2021/11/30 07:25:37;;;;;;;868.97;783.07;;;5.90;99.90;;;;;;4882891;29;20494;-82
2021/11/30 07:28:04;;;;;;;853.73;767.03;;;5.90;99.90;;;;;;4882142;29;20494;-82
2021/11/30 07:30:33;;;;;;;863.40;779.20;;;5.90;99.90;;;;;;4882547;29;20479;-81
2021/11/30 07:33:00;;;;;;;851.23;768.17;;;5.90;99.90;;;;;;4883347;29;20466;-82
2021/11/30 07:35:27;;;;;;;841.87;758.90;;;6.00;99.90;;;;;;4881992;29;20451;-82
2021/11/30 07:37:54;;;;;;;854.70;770.47;;;6.00;99.90;;;;;;4881962;29;20488;-83
2021/11/30 07:40:21;;;;;;;857.80;772.70;;;6.00;99.90;;;;;;4883783;29;20463;-82
2021/11/30 07:42:48;;;;;;;842.80;756.70;;;6.00;99.90;;;;;;4882967;29;20979;-80
2021/11/30 07:45:16;;;;;;;850.77;766.03;;;6.00;99.90;;;;;;4882211;29;20491;-83
2021/11/30 07:47:44;;;;;;;852.10;765.57;;;6.00;99.90;;;;;;4882933;29;20483;-82
2021/11/30 07:50:11;;;;;;;858.17;774.00;;;6.00;99.90;;;;;;4881818;29;20460;-82
2021/11/30 07:52:41;;;;;;;851.93;765.93;;;6.10;99.90;;;;;;4883020;29;20468;-82
2021/11/30 07:55:09;;;;;;;848.97;762.60;;;6.20;99.90;;;;;;4883442;29;20459;-82
2021/11/30 07:57:36;;;;;;;849.97;764.83;;;6.10;99.90;;;;;;4887289;29;20491;-82
2021/11/30 08:00:04;;;;;;;890.80;806.57;;;6.10;99.90;;;;;;4887339;29;20829;-82
2021/11/30 08:02:31;;;;;;;862.57;779.80;;;6.30;99.90;;;;;;4887415;29;20470;-82
2021/11/30 08:04:59;;;;;;;851.50;768.03;;;6.20;99.90;;;;;;4886244;29;20483;-83
2021/11/30 08:07:26;;;;;;;856.77;773.40;;;6.20;99.90;;;;;;4886190;29;20878;-83
2021/11/30 08:09:53;;;;;;;851.47;768.27;;;6.30;99.90;;;;;;4885860;29;20463;-83
2021/11/30 08:12:20;;;;;;;877.50;793.20;;;6.30;99.90;;;;;;4886881;29;20514;-83
2021/11/30 08:14:46;;;;;;;835.10;756.13;;;6.30;99.90;;;;;;4885001;29;20460;-83
2021/11/30 08:17:15;;;;;;;840.17;762.70;;;6.30;99.90;;;;;;4885091;29;20480;-82
2021/11/30 08:19:43;;;;;;;840.93;763.37;;;6.40;99.90;;;;;;4884170;29;20535;-82
2021/11/30 08:22:11;;;;;;;844.53;767.53;;;6.40;99.90;;;;;;4883108;29;20467;-82
2021/11/30 08:24:38;;;;;;;839.03;762.33;;;6.50;99.90;;;;;;4882208;29;21142;-82
2021/11/30 08:27:06;;;;;;;836.50;759.90;;;6.40;99.90;;;;;;4883639;29;20479;-82
2021/11/30 08:29:34;;;;;;;842.63;765.03;;;6.50;99.90;;;;;;4884759;29;20490;-82
2021/11/30 08:32:02;;;;;;;834.33;757.07;;;6.50;99.90;;;;;;4885028;29;20550;-83
2021/11/30 08:34:28;;;;;;;827.73;752.33;;;6.50;99.90;;;;;;4885227;29;20466;-82
2021/11/30 08:36:55;;;;;;;842.20;765.43;;;6.50;99.90;;;;;;4884862;29;20479;-82
2021/11/30 08:39:23;;;;;;;830.73;753.00;;;6.70;99.90;;;;;;4884849;29;20467;-82
2021/11/30 08:41:50;;;;;;;839.40;761.10;;;6.70;99.90;;;;;;4884235;29;20972;-82
2021/11/30 08:44:16;;;;;;;862.23;778.73;;;6.80;99.90;;;;;;4884743;29;20463;-82
2021/11/30 08:46:44;;;;;;;866.93;783.10;;;6.80;99.90;;;;;;4884830;29;20483;-81
2021/11/30 08:49:10;;;;;;;863.70;778.80;;;6.90;99.90;;;;;;4885595;29;20470;-81
2021/11/30 08:51:37;;;;;;;872.93;787.00;;;6.90;99.90;;;;;;4884306;29;20455;-82
2021/11/30 08:54:04;;;;;;;868.27;782.37;;;7.00;99.90;;;;;;4884433;29;20481;-82
2021/11/30 08:56:32;;;;;;;872.47;786.20;;;7.10;99.90;;;;;;4883573;29;20467;-81
2021/11/30 08:58:59;;;;;;;882.53;794.27;;;7.10;99.90;;;;;;4884227;29;20474;-82
2021/11/30 09:01:26;;;;;;;881.77;795.57;;;7.20;99.90;;;;;;4883502;29;20459;-81
2021/11/30 09:03:53;;;;;;;879.47;793.17;;;7.20;99.90;;;;;;4884775;29;20465;-81
2021/11/30 09:06:20;;;;;;;868.87;783.97;;;7.20;99.90;;;;;;4883549;29;20490;-82
2021/11/30 09:08:46;;;;;;;869.97;787.50;;;7.20;99.90;;;;;;4885364;29;20479;-82
2021/11/30 09:11:13;;;;;;;864.90;781.13;;;7.60;99.90;;;;;;4884394;29;20463;-82
2021/11/30 09:13:41;;;;;;;866.37;781.80;;;7.40;99.90;;;;;;4884635;29;20459;-83
2021/11/30 09:16:08;;;;;;;858.93;776.87;;;7.50;99.90;;;;;;4884430;29;20874;-83
2021/11/30 09:18:35;;;;;;;869.63;786.80;;;7.30;99.90;;;;;;4885106;29;20486;-82
2021/11/30 09:21:01;;;;;;;851.60;772.40;;;7.50;99.90;;;;;;4884505;29;20459;-82
2021/11/30 09:23:28;;;;;;;865.37;783.50;;;7.40;99.90;;;;;;4884039;29;20463;-84
2021/11/30 09:25:56;;;;;;;869.13;788.47;;;7.40;99.90;;;;;;4883768;29;20875;-82
2021/11/30 09:28:24;;;;;;;861.37;781.57;;;7.70;99.90;;;;;;4883662;29;20519;-82
2021/11/30 09:30:52;;;;;;;866.27;784.50;;;7.60;99.90;;;;;;4883287;29;21009;-83
2021/11/30 09:33:19;;;;;;;873.57;791.47;;;7.70;99.90;;;;;;4885055;29;20463;-81
2021/11/30 09:35:46;;;;;;;870.97;789.87;;;7.80;99.90;;;;;;4884853;29;20838;-82
2021/11/30 09:38:13;;;;;;;884.70;803.50;;;7.70;99.90;;;;;;4884757;29;20479;-82
2021/11/30 09:40:40;;;;;;;878.23;796.73;;;7.80;99.90;;;;;;4884253;29;20953;-83
2021/11/30 09:43:08;;;;;;;873.80;794.20;;;7.70;99.90;;;;;;4884201;29;20459;-82
2021/11/30 09:45:38;;;;;;;867.70;790.30;;;7.90;99.90;;;;;;4883990;29;20487;-82
2021/11/30 09:48:10;;;;;;;887.40;807.43;;;7.60;99.90;;;;;;4884907;29;20574;-82
2021/11/30 09:50:39;;;;;;;876.20;797.07;;;7.60;99.90;;;;;;4884183;29;20507;-82
2021/11/30 09:53:07;;;;;;;877.10;798.47;;;7.60;99.90;;;;;;4883749;29;20459;-83
2021/11/30 09:55:36;;;;;;;884.60;805.80;;;7.60;99.90;;;;;;4884479;29;20463;-82
2021/11/30 09:58:03;;;;;;;881.50;803.90;;;7.70;99.90;;;;;;4884363;29;20510;-82
2021/11/30 10:00:30;;;;;;;887.87;810.43;;;8.00;99.90;;;;;;4884732;29;20478;-83
2021/11/30 10:02:59;;;;;;;896.27;818.57;;;8.10;99.90;;;;;;4883439;29;20464;-83
2021/11/30 10:05:28;;;;;;;894.87;816.57;;;8.10;99.90;;;;;;4883130;29;20532;-83
2021/11/30 10:07:56;;;;;;;886.83;809.10;;;7.90;99.90;;;;;;4883511;29;20483;-85
2021/11/30 10:10:27;;;;;;;883.50;807.20;;;7.80;99.90;;;;;;4884214;29;20582;-83
2021/11/30 10:13:08;;;;;;;889.97;814.87;;;8.00;99.90;;;;;;4883412;29;20471;-83
2021/11/30 10:15:58;;;;;;;904.77;829.27;;;8.10;99.90;;;;;;4882388;29;20470;-83
2021/11/30 10:18:27;;;;;;;907.67;832.67;;;8.20;99.90;;;;;;4882595;29;20486;-83
2021/11/30 10:20:58;;;;;;;909.20;836.80;;;7.90;99.90;;;;;;4883643;29;20451;-83
2021/11/30 10:23:30;;;;;;;917.27;843.90;;;8.10;99.90;;;;;;4883132;29;20463;-83
2021/11/30 10:26:03;;;;;;;912.87;840.47;;;8.00;99.90;;;;;;4883281;29;20484;-83
2021/11/30 10:28:32;;;;;;;920.90;846.10;;;8.00;99.90;;;;;;4882253;29;20518;-83
2021/11/30 10:30:59;;;;;;;923.50;848.70;;;8.10;99.90;;;;;;4882342;29;20467;-83
2021/11/30 10:33:28;;;;;;;910.10;834.47;;;8.10;99.90;;;;;;4883321;29;20475;-83
2021/11/30 10:35:58;;;;;;;901.00;824.53;;;8.50;99.90;;;;;;4881669;29;20452;-83
2021/11/30 10:38:32;;;;;;;858.60;785.00;;;8.10;99.90;;;;;;4883214;29;20483;-83
2021/11/30 10:41:11;;;;;;;874.57;794.53;;;8.20;99.90;;;;;;4883511;29;20463;-83
2021/11/30 10:43:41;;;;;;;873.83;794.00;;;8.50;99.90;;;;;;4883601;29;20900;-82
2021/11/30 10:46:19;;;;;;;881.27;801.30;;;8.30;99.90;;;;;;4883620;29;20483;-82
2021/11/30 10:48:47;;;;;;;876.83;795.67;;;8.40;99.90;;;;;;4883265;29;20986;-82
2021/11/30 10:51:15;;;;;;;887.37;802.97;;;8.40;99.90;;;;;;4884882;29;20466;-83
2021/11/30 10:53:45;;;;;;;880.83;799.53;;;8.10;99.90;;;;;;4885075;29;20456;-82
2021/11/30 10:56:12;;;;;;;898.97;812.30;;;8.50;99.90;;;;;;4885124;29;20467;-82
2021/11/30 10:58:41;;;;;;;887.60;800.70;;;8.50;99.90;;;;;;4883867;29;20885;-82
2021/11/30 11:01:11;;;;;;;884.30;798.37;;;8.50;99.90;;;;;;4882888;29;20465;-83
2021/11/30 11:03:37;;;;;;;888.63;802.43;;;8.60;99.90;;;;;;4883494;29;20459;-83
2021/11/30 11:08:55;;;;;;;874.47;790.90;;;8.40;99.90;;;;;;4883048;29;20619;-83
2021/11/30 11:11:23;;;;;;;885.37;800.87;;;8.30;99.90;;;;;;4881938;29;20502;-82
2021/11/30 11:13:50;;;;;;;891.63;806.90;;;8.40;99.90;;;;;;4883065;29;20844;-82
2021/11/30 11:16:25;;;;;;;884.70;800.20;;;8.60;99.90;;;;;;4882376;29;20464;-82
2021/11/30 11:18:54;;;;;;;889.77;804.67;;;8.70;99.90;;;;;;4883494;29;20487;-82
2021/11/30 11:21:24;;;;;;;875.97;793.77;;;8.40;99.90;;;;;;4882914;29;20460;-83
2021/11/30 11:24:05;;;;;;;877.93;793.33;;;8.80;99.90;;;;;;4882464;29;20463;-82
2021/11/30 11:26:34;;;;;;;880.63;797.00;;;8.50;99.90;;;;;;4882243;29;20499;-82
2021/11/30 11:29:04;;;;;;;888.27;802.27;;;8.50;99.90;;;;;;4882792;29;20831;-83
2021/11/30 11:31:31;;;;;;;894.33;809.43;;;8.60;99.90;;;;;;4882903;29;20550;-83
2021/11/30 11:34:00;;;;;;;894.47;807.63;;;8.80;99.90;;;;;;4882543;29;20463;-82
2021/11/30 11:36:27;;;;;;;885.90;799.47;;;8.90;99.90;;;;;;4882449;29;20835;-82
2021/11/30 11:38:54;;;;;;;877.50;793.30;;;8.80;99.90;;;;;;4882888;29;20463;-83
2021/11/30 11:41:23;;;;;;;872.97;789.60;;;8.70;99.90;;;;;;4882840;29;20463;-82
2021/11/30 11:43:51;;;;;;;878.50;793.63;;;8.80;99.90;;;;;;4882466;29;20463;-83
2021/11/30 11:46:18;;;;;;;877.43;791.90;;;8.60;99.90;;;;;;4882647;29;20487;-81
2021/11/30 11:48:48;;;;;;;871.10;787.60;;;8.80;99.90;;;;;;4882463;29;20480;-81
2021/11/30 11:51:15;;;;;;;876.60;791.63;;;8.80;99.90;;;;;;4882852;29;20498;-82
2021/11/30 11:53:52;;;;;;;881.30;795.00;;;8.90;99.90;;;;;;4883084;29;20459;-80
2021/11/30 11:56:23;;;;;;;871.43;787.50;;;8.80;99.90;;;;;;4883757;29;20999;-81
2021/11/30 11:58:52;;;;;;;888.73;799.43;;;8.70;99.90;;;;;;4883273;29;20483;-80
2021/11/30 12:01:22;;;;;;;886.17;796.97;;;9.00;99.90;;;;;;4883073;29;20464;-80
2021/11/30 12:03:56;;;;;;;882.50;794.60;;;8.70;99.90;;;;;;4883624;29;20466;-80
2021/11/30 12:06:26;;;;;;;878.93;792.90;;;9.10;99.90;;;;;;4883108;29;20558;-80
2021/11/30 12:09:17;;;;;;;885.30;799.27;;;8.90;99.90;;;;;;4882950;29;20487;-81
2021/11/30 12:11:47;;;;;;;888.70;801.00;;;8.80;99.90;;;;;;4883259;29;20459;-82
2021/11/30 12:14:21;;;;;;;887.30;798.70;;;9.30;99.90;;;;;;4884427;29;20467;-80
2021/11/30 12:17:15;;;;;;;879.73;791.23;;;9.30;99.90;;;;;;4883777;29;20505;-81
2021/11/30 12:19:47;;;;;;;896.90;808.00;;;9.70;99.90;;;;;;4883429;29;20467;-82
2021/11/30 12:22:35;;;;;;;889.57;800.47;;;9.50;99.90;;;;;;4882860;29;20469;-81
2021/11/30 12:25:05;;;;;;;898.80;809.20;;;9.50;99.90;;;;;;4882843;29;20467;-81
2021/11/30 12:27:42;;;;;;;886.27;799.77;;;9.80;99.90;;;;;;4883336;29;20543;-82
2021/11/30 12:30:50;;;;;;;901.33;810.27;;;9.50;99.90;;;;;;4882448;29;20467;-81